Time;durP1;ratioP1;P1;durP2;ratioP2;P2;SDS_P1;SDS_P2;PMS_P1;PMS_P2;Temp;Humidity;BMP_temperature;BMP_pressure;BME280_temperature;BME280_humidity;BME280_pressure;Samples;Min_cycle;Max_cycle;Signal;HPM_P1;HPM_P2
2021/03/10 00:02:17;;;;;;;25.08;14.68;;;128.50;1305.60;;;;;;5013887;28;20033;-78
2021/03/10 00:04:43;;;;;;;24.83;13.10;;;128.60;1305.60;;;;;;5030213;28;20485;-77
2021/03/10 00:07:09;;;;;;;;;;;128.70;1305.60;;;;;;5042528;28;20389;-77
2021/03/10 00:09:34;;;;;;;24.50;13.18;;;128.70;1331.20;;;;;;5026213;28;20126;-80
2021/03/10 00:12:00;;;;;;;;;;;128.50;1305.60;;;;;;5045093;28;20024;-80
2021/03/10 00:14:26;;;;;;;25.23;13.20;;;128.70;1305.60;;;;;;5047051;28;19905;-79
2021/03/10 00:16:51;;;;;;;;;;;128.60;1280.00;;;;;;5032001;28;20071;-80
2021/03/10 00:19:17;;;;;;;21.77;12.75;;;128.60;1305.60;;;;;;5038475;28;19917;-78
2021/03/10 00:21:43;;;;;;;;;;;128.50;1280.00;;;;;;5026238;28;20448;-81
2021/03/10 00:24:09;;;;;;;23.73;12.63;;;128.40;1305.60;;;;;;5045916;28;19944;-80
2021/03/10 00:26:35;;;;;;;23.75;13.80;;;128.40;1305.60;;;;;;5054175;28;20032;-80
2021/03/10 00:29:00;;;;;;;22.50;12.88;;;128.50;1305.60;;;;;;5038316;28;20049;-77
2021/03/10 00:31:27;;;;;;;;;;;128.40;1305.60;;;;;;5034950;28;20084;-78
2021/03/10 00:33:53;;;;;;;29.80;13.07;;;128.40;1331.20;;;;;;5026579;28;19889;-77
2021/03/10 00:36:18;;;;;;;;;;;128.40;1331.20;;;;;;5040278;28;20093;-77
2021/03/10 00:38:44;;;;;;;23.58;12.73;;;128.50;1331.20;;;;;;5024978;28;19911;-79
2021/03/10 00:41:10;;;;;;;;;;;128.50;1305.60;;;;;;5026527;28;20389;-77
2021/03/10 00:43:35;;;;;;;26.02;13.32;;;128.60;1331.20;;;;;;5030923;28;19889;-77
2021/03/10 00:46:01;;;;;;;;;;;128.70;1305.60;;;;;;5031919;28;20036;-77
2021/03/10 00:48:27;;;;;;;26.50;11.90;;;128.80;1305.60;;;;;;5037139;28;19905;-77
2021/03/10 00:50:52;;;;;;;25.65;13.38;;;128.80;1305.60;;;;;;5015775;28;20021;-77
2021/03/10 00:53:18;;;;;;;;;;;128.70;1305.60;;;;;;5037206;28;20025;-78
2021/03/10 00:55:44;;;;;;;27.48;13.40;;;128.80;1305.60;;;;;;5033106;28;19920;-77
2021/03/10 00:58:09;;;;;;;;;;;128.90;1305.60;;;;;;5041046;28;20066;-76
2021/03/10 01:00:35;;;;;;;23.63;13.55;;;128.80;1331.20;;;;;;5036592;28;19897;-77
2021/03/10 01:03:01;;;;;;;;;;;128.70;1331.20;;;;;;5019874;28;20075;-77
2021/03/10 01:05:26;;;;;;;26.83;13.98;;;128.60;1331.20;;;;;;5022671;28;19909;-79
2021/03/10 01:07:52;;;;;;;28.98;12.98;;;128.60;1331.20;;;;;;5037482;28;20029;-77
2021/03/10 01:10:17;;;;;;;;;;;128.50;1331.20;;;;;;5019603;28;20116;-77
2021/03/10 01:12:44;;;;;;;32.53;14.25;;;128.50;1356.80;;;;;;5033317;28;20323;-77
2021/03/10 01:15:11;;;;;;;;;;;128.50;1331.20;;;;;;5044628;28;20029;-77
2021/03/10 01:17:37;;;;;;;18.48;10.40;;;128.50;1331.20;;;;;;5029586;28;19905;-77
2021/03/10 01:20:12;;;;;;;26.35;13.30;;;128.40;1356.80;;;;;;5017954;28;20489;-77
2021/03/10 01:22:38;;;;;;;28.27;13.55;;;128.50;1331.20;;;;;;5026472;28;19998;-77
2021/03/10 01:25:05;;;;;;;26.92;13.82;;;128.50;1331.20;;;;;;5022818;28;20029;-77
2021/03/10 01:27:31;;;;;;;22.58;13.13;;;128.50;1331.20;;;;;;5019349;28;20025;-77
2021/03/10 01:29:57;;;;;;;26.25;13.30;;;128.50;1305.60;;;;;;5039421;28;20033;-77
2021/03/10 01:32:22;;;;;;;;;;;128.70;1331.20;;;;;;5041066;28;20495;-77
2021/03/10 01:34:48;;;;;;;28.42;15.10;;;128.70;1331.20;;;;;;5041478;28;19904;-77
2021/03/10 01:37:14;;;;;;;26.10;13.48;;;128.60;1331.20;;;;;;5020339;28;20033;-77
2021/03/10 01:39:39;;;;;;;;;;;128.50;1305.60;;;;;;5041267;28;20029;-77
2021/03/10 01:42:07;;;;;;;29.30;14.40;;;128.50;1331.20;;;;;;5029576;28;19905;-77
2021/03/10 01:44:33;;;;;;;27.20;14.55;;;128.40;1331.20;;;;;;5042183;28;20029;-79
2021/03/10 01:47:00;;;;;;;22.83;14.48;;;128.50;1331.20;;;;;;5030489;28;20005;-78
2021/03/10 01:49:27;;;;;;;30.48;14.32;;;128.60;1305.60;;;;;;5031064;28;20057;-78
2021/03/10 01:51:53;;;;;;;28.98;12.70;;;128.50;1305.60;;;;;;5028076;28;20033;-78
2021/03/10 01:54:18;;;;;;;;;;;128.50;1331.20;;;;;;5027411;28;20093;-78
2021/03/10 01:56:45;;;;;;;25.55;13.95;;;128.50;1331.20;;;;;;5036868;28;20426;-78
2021/03/10 01:59:11;;;;;;;29.33;14.00;;;128.60;1331.20;;;;;;5049583;28;20037;-83
2021/03/10 02:01:37;;;;;;;;;;;128.50;1356.80;;;;;;5043674;28;20026;-78
2021/03/10 02:04:07;;;;;;;22.90;13.05;;;128.40;1356.80;;;;;;5035455;28;19952;-78
2021/03/10 02:06:58;;;;;;;30.15;12.88;;;128.50;1356.80;;;;;;5028068;28;20022;-80
2021/03/10 02:10:01;;;;;;;28.77;12.98;;;128.40;1356.80;;;;;;5034517;28;20170;-78
2021/03/10 02:12:56;;;;;;;29.27;14.57;;;128.40;1356.80;;;;;;5048743;28;20045;-77
2021/03/10 02:16:01;;;;;;;25.40;12.55;;;128.40;1331.20;;;;;;5049039;28;20021;-83
2021/03/10 02:18:34;;;;;;;21.30;12.63;;;128.40;1356.80;;;;;;5047014;28;20021;-78
2021/03/10 02:21:02;;;;;;;25.67;12.35;;;128.50;1331.20;;;;;;5024441;28;20029;-78
2021/03/10 02:24:13;;;;;;;26.85;11.98;;;128.50;1331.20;;;;;;5032574;28;20075;-79
2021/03/10 02:27:34;;;;;;;19.77;10.25;;;128.60;1331.20;;;;;;5015549;28;20037;-79
2021/03/10 02:30:10;;;;;;;24.75;11.88;;;128.40;1331.20;;;;;;4983328;28;20031;-78
2021/03/10 02:32:43;;;;;;;15.57;8.98;;;128.40;1331.20;;;;;;4993870;28;20053;-79
2021/03/10 02:35:09;;;;;;;22.10;11.27;;;128.40;1356.80;;;;;;4972928;28;20065;-80
2021/03/10 02:37:42;;;;;;;22.05;10.73;;;128.40;1331.20;;;;;;4973406;28;20023;-82
2021/03/10 02:40:10;;;;;;;25.70;10.90;;;128.40;1331.20;;;;;;4970154;28;20145;-81
2021/03/10 02:42:37;;;;;;;19.92;10.27;;;128.30;1356.80;;;;;;4994488;28;20093;-80
2021/03/10 02:45:05;;;;;;;21.98;10.95;;;128.40;1331.20;;;;;;4988344;28;20070;-78
2021/03/10 02:47:32;;;;;;;18.25;10.45;;;128.40;1331.20;;;;;;4972539;28;20143;-78
2021/03/10 02:49:59;;;;;;;21.65;9.63;;;128.40;1331.20;;;;;;4971264;28;20041;-78
2021/03/10 02:52:25;;;;;;;20.55;10.35;;;128.40;1331.20;;;;;;4983288;28;20038;-83
2021/03/10 02:54:52;;;;;;;20.77;10.23;;;128.40;1331.20;;;;;;4984421;28;20062;-78
2021/03/10 02:57:18;;;;;;;24.73;9.82;;;128.40;1331.20;;;;;;4988255;28;20019;-83
2021/03/10 02:59:45;;;;;;;20.48;10.27;;;128.50;1331.20;;;;;;4972738;28;20055;-77
2021/03/10 03:02:12;;;;;;;18.30;9.45;;;128.60;1305.60;;;;;;4985128;28;20519;-78
2021/03/10 03:04:38;;;;;;;19.67;8.93;;;128.60;1305.60;;;;;;4987181;28;20027;-78
2021/03/10 03:07:04;;;;;;;18.05;9.85;;;128.60;1305.60;;;;;;5001742;28;20045;-84
2021/03/10 03:09:31;;;;;;;;;;;128.50;1305.60;;;;;;5029738;28;20029;-77
2021/03/10 03:11:57;;;;;;;18.38;8.35;;;128.60;1305.60;;;;;;5038803;28;19912;-77
2021/03/10 03:14:24;;;;;;;17.27;9.32;;;128.60;1305.60;;;;;;5028604;28;20022;-78
2021/03/10 03:16:50;;;;;;;18.75;9.95;;;128.70;1305.60;;;;;;5022835;28;20033;-78
2021/03/10 03:19:16;;;;;;;19.73;10.75;;;128.60;1305.60;;;;;;5035500;28;20445;-77
2021/03/10 03:21:42;;;;;;;;;;;128.50;1331.20;;;;;;5019091;28;20025;-78
2021/03/10 03:24:08;;;;;;;15.00;8.23;;;128.30;1331.20;;;;;;5047696;28;20375;-82
2021/03/10 03:26:35;;;;;;;18.08;8.63;;;128.40;1331.20;;;;;;5044660;28;20071;-77
2021/03/10 03:29:01;;;;;;;17.73;10.00;;;128.50;1331.20;;;;;;5041235;28;20017;-77
2021/03/10 03:31:29;;;;;;;17.00;8.80;;;128.50;1305.60;;;;;;5026062;28;20100;-78
2021/03/10 03:33:55;;;;;;;15.82;8.50;;;128.60;1331.20;;;;;;5023402;28;20118;-77
2021/03/10 03:36:21;;;;;;;14.27;8.20;;;128.60;1331.20;;;;;;5023780;28;20021;-77
2021/03/10 03:38:47;;;;;;;;;;;128.60;1305.60;;;;;;5021280;28;20037;-77
2021/03/10 03:41:12;;;;;;;14.85;8.13;;;128.60;1331.20;;;;;;5034475;28;20357;-77
2021/03/10 03:43:38;;;;;;;16.23;8.20;;;128.70;1305.60;;;;;;5042475;28;20469;-78
2021/03/10 03:46:04;;;;;;;;;;;128.60;1305.60;;;;;;5034097;28;20077;-77
2021/03/10 03:48:30;;;;;;;23.80;8.10;;;128.60;1305.60;;;;;;5025798;28;19958;-84
2021/03/10 03:50:56;;;;;;;;;;;128.60;1305.60;;;;;;5043198;28;20104;-77
2021/03/10 03:53:22;;;;;;;17.73;8.93;;;128.50;1305.60;;;;;;5044555;28;19916;-77
2021/03/10 03:55:48;;;;;;;21.67;11.30;;;128.40;1331.20;;;;;;5050839;28;20021;-81
2021/03/10 03:58:13;;;;;;;;;;;128.50;1331.20;;;;;;5026057;28;20083;-77
2021/03/10 04:00:39;;;;;;;17.40;8.65;;;128.50;1331.20;;;;;;5025653;28;19920;-77
2021/03/10 04:03:05;;;;;;;;;;;128.40;1331.20;;;;;;5026126;28;20062;-77
2021/03/10 04:05:31;;;;;;;14.05;8.00;;;128.40;1331.20;;;;;;5049162;28;19968;-83
2021/03/10 04:07:57;;;;;;;;;;;128.40;1331.20;;;;;;5023238;28;20037;-77
2021/03/10 04:10:31;;;;;;;14.90;8.48;;;128.40;1305.60;;;;;;5039797;28;19944;-79
2021/03/10 04:12:59;;;;;;;15.80;7.47;;;128.40;1331.20;;;;;;5045587;28;20097;-77
2021/03/10 04:15:26;;;;;;;20.05;7.68;;;128.40;1331.20;;;;;;5028288;28;20021;-85
2021/03/10 04:17:53;;;;;;;16.30;8.32;;;128.50;1331.20;;;;;;5025985;28;20488;-77
2021/03/10 04:20:21;;;;;;;13.10;6.80;;;128.40;1331.20;;;;;;5021004;28;20057;-79
2021/03/10 04:22:47;;;;;;;14.82;7.35;;;128.40;1305.60;;;;;;5018917;28;20022;-77
2021/03/10 04:25:13;;;;;;;13.02;6.68;;;128.40;1331.20;;;;;;5018949;28;20026;-79
2021/03/10 04:27:39;;;;;;;15.95;6.43;;;128.50;1305.60;;;;;;5041476;28;20087;-81
2021/03/10 04:30:08;;;;;;;19.98;8.35;;;128.30;1331.20;;;;;;5039484;28;20022;-78
2021/03/10 04:32:34;;;;;;;19.20;8.25;;;103.30;1356.80;;;;;;5022713;28;20029;-77
2021/03/10 04:35:00;;;;;;;15.68;7.43;;;128.00;1408.00;;;;;;5025579;28;20025;-79
2021/03/10 04:37:26;;;;;;;12.63;7.63;;;128.10;1356.80;;;;;;5024399;28;20031;-77
2021/03/10 04:39:52;;;;;;;18.13;7.35;;;128.20;1356.80;;;;;;5022720;28;20049;-83
2021/03/10 04:42:18;;;;;;;17.27;6.60;;;128.20;1356.80;;;;;;5025550;28;20033;-77
2021/03/10 04:44:43;;;;;;;;;;;128.30;1331.20;;;;;;5031098;28;20096;-77
2021/03/10 04:47:09;;;;;;;17.08;6.97;;;128.10;1356.80;;;;;;5036477;28;19905;-75
2021/03/10 04:49:35;;;;;;;15.52;8.27;;;128.20;1382.40;;;;;;5032094;28;20029;-77
2021/03/10 04:52:01;;;;;;;;;;;128.30;1356.80;;;;;;5041284;28;20105;-81
2021/03/10 04:54:27;;;;;;;14.77;6.78;;;128.20;1356.80;;;;;;5029137;28;19917;-81
2021/03/10 04:56:52;;;;;;;;;;;128.30;1356.80;;;;;;5022506;28;20034;-78
2021/03/10 04:59:18;;;;;;;12.00;6.50;;;128.30;1331.20;;;;;;5030765;28;19917;-83
2021/03/10 05:01:44;;;;;;;;;;;128.30;1331.20;;;;;;5042155;28;20022;-77
2021/03/10 05:04:10;;;;;;;11.45;6.25;;;128.30;1331.20;;;;;;5026559;28;19992;-78
2021/03/10 05:06:35;;;;;;;;;;;128.30;1331.20;;;;;;5031026;28;20069;-78
2021/03/10 05:09:01;;;;;;;12.10;6.15;;;128.40;1331.20;;;;;;5034995;28;19906;-78
2021/03/10 05:11:27;;;;;;;;;;;128.20;1331.20;;;;;;5028975;28;20018;-77
2021/03/10 05:13:53;;;;;;;11.70;6.28;;;128.20;1331.20;;;;;;5027783;28;19913;-78
2021/03/10 05:16:18;;;;;;;;;;;128.10;1331.20;;;;;;5018567;28;20032;-78
2021/03/10 05:18:44;;;;;;;12.82;6.57;;;128.20;1331.20;;;;;;5033421;28;19909;-77
2021/03/10 05:21:10;;;;;;;;;;;128.30;1356.80;;;;;;5048411;28;20029;-84
2021/03/10 05:23:41;;;;;;;18.27;7.00;;;128.30;1331.20;;;;;;5028555;28;19945;-83
2021/03/10 05:26:08;;;;;;;17.38;9.25;;;128.30;1356.80;;;;;;5024940;28;20014;-76
2021/03/10 05:28:34;;;;;;;49.47;21.25;;;128.40;1356.80;;;;;;5036686;28;20152;-77
2021/03/10 05:31:00;;;;;;;33.90;15.18;;;128.40;1356.80;;;;;;5012188;28;20481;-77
2021/03/10 05:33:25;;;;;;;;;;;128.40;1356.80;;;;;;5049549;28;20025;-80
2021/03/10 05:35:51;;;;;;;19.80;9.80;;;128.50;1356.80;;;;;;5046166;28;19908;-77
2021/03/10 05:38:17;;;;;;;;;;;128.40;1356.80;;;;;;5045301;28;20072;-83
2021/03/10 05:40:42;;;;;;;22.33;11.63;;;128.50;1331.20;;;;;;5056551;28;19921;-80
2021/03/10 05:43:08;;;;;;;;;;;128.50;1356.80;;;;;;5074050;28;20076;-77
2021/03/10 05:45:34;;;;;;;30.90;12.18;;;128.50;1356.80;;;;;;5064780;28;19909;-77
2021/03/10 05:47:59;;;;;;;;;;;128.50;1356.80;;;;;;5047444;28;20030;-77
2021/03/10 05:50:25;;;;;;;29.55;14.18;;;128.50;1331.20;;;;;;5029731;28;19913;-80
2021/03/10 05:52:51;;;;;;;;;;;128.60;1356.80;;;;;;5022239;28;20059;-77
2021/03/10 05:55:20;;;;;;;22.45;12.07;;;128.70;1331.20;;;;;;5021797;28;19917;-77
2021/03/10 05:57:46;;;;;;;24.27;11.95;;;128.60;1331.20;;;;;;5036672;28;20053;-76
2021/03/10 06:00:16;;;;;;;23.88;12.88;;;128.70;1331.20;;;;;;5020117;28;20505;-79
2021/03/10 06:02:42;;;;;;;20.00;9.38;;;153.70;1331.20;;;;;;5019997;28;20029;-77
2021/03/10 06:05:20;;;;;;;;;;;128.50;1331.20;;;;;;5020383;28;20033;-76
2021/03/10 06:07:57;;;;;;;17.73;8.52;;;128.70;1331.20;;;;;;5018322;28;19913;-78
2021/03/10 06:10:23;;;;;;;16.77;8.32;;;128.60;1331.20;;;;;;5018555;28;20029;-77
2021/03/10 06:12:50;;;;;;;14.80;8.38;;;128.70;1305.60;;;;;;5018438;28;20029;-76
2021/03/10 06:15:16;;;;;;;19.35;8.73;;;128.70;1356.80;;;;;;5019524;28;20026;-78
2021/03/10 06:17:47;;;;;;;21.42;9.13;;;128.80;1331.20;;;;;;5023986;28;20283;-77
2021/03/10 06:20:30;;;;;;;15.27;9.05;;;128.90;1331.20;;;;;;5026165;28;20048;-77
2021/03/10 06:22:56;;;;;;;22.63;8.98;;;128.90;1331.20;;;;;;5019038;28;20034;-78
2021/03/10 06:25:23;;;;;;;12.55;7.97;;;128.90;1331.20;;;;;;5018152;28;20270;-77
2021/03/10 06:27:57;;;;;;;19.10;9.77;;;128.90;1331.20;;;;;;5018233;28;20030;-77
2021/03/10 06:30:45;;;;;;;41.53;20.70;;;128.90;1331.20;;;;;;5036528;28;20033;-77
2021/03/10 06:33:21;;;;;;;21.83;11.55;;;128.80;1305.60;;;;;;5030160;28;20060;-78
2021/03/10 06:35:47;;;;;;;13.98;8.05;;;128.90;1305.60;;;;;;5038951;28;20016;-79
2021/03/10 06:38:14;;;;;;;11.32;6.20;;;128.90;1305.60;;;;;;5041681;28;20140;-77
2021/03/10 06:40:58;;;;;;;19.02;8.55;;;153.60;1280.00;;;;;;5037862;28;20392;-77
2021/03/10 06:43:35;;;;;;;14.38;6.95;;;153.70;1305.60;;;;;;5034391;28;20515;-77
2021/03/10 06:46:16;;;;;;;13.70;6.80;;;153.70;1254.40;;;;;;5062524;28;20032;-77
2021/03/10 06:48:55;;;;;;;14.35;7.25;;;153.90;1280.00;;;;;;5041723;28;20033;-76
2021/03/10 06:51:21;;;;;;;13.77;6.57;;;153.90;1254.40;;;;;;5055270;28;20017;-76
2021/03/10 06:53:47;;;;;;;;;;;153.90;1254.40;;;;;;5039820;28;20044;-76
2021/03/10 06:56:35;;;;;;;14.13;6.22;;;154.00;1254.40;;;;;;5038527;28;19966;-77
2021/03/10 06:59:02;;;;;;;18.92;8.20;;;154.10;1254.40;;;;;;5046212;28;20393;-77
2021/03/10 07:01:41;;;;;;;12.93;6.65;;;154.20;1254.40;;;;;;5044318;28;20025;-76
2021/03/10 07:04:09;;;;;;;15.02;6.68;;;154.20;1228.80;;;;;;5027603;28;20473;-76
2021/03/10 07:06:36;;;;;;;18.95;7.32;;;154.20;1254.40;;;;;;5028798;28;20388;-76
2021/03/10 07:09:17;;;;;;;12.35;6.65;;;154.30;1203.20;;;;;;5027572;28;20084;-77
2021/03/10 07:11:43;;;;;;;17.00;8.07;;;154.40;1228.80;;;;;;5022366;28;20040;-76
2021/03/10 07:14:13;;;;;;;17.50;7.75;;;154.50;1203.20;;;;;;5038243;28;20049;-76
2021/03/10 07:16:53;;;;;;;10.55;6.22;;;179.20;1203.20;;;;;;5051164;28;20036;-79
2021/03/10 07:19:18;;;;;;;15.25;8.18;;;179.20;1177.60;;;;;;5035618;28;20037;-78
2021/03/10 07:21:52;;;;;;;12.40;6.78;;;179.20;1177.60;;;;;;5056658;28;20515;-76
2021/03/10 07:24:47;;;;;;;16.40;7.45;;;179.20;1177.60;;;;;;5052936;28;20022;-76
2021/03/10 07:27:17;;;;;;;10.90;6.05;;;179.40;1177.60;;;;;;5030370;28;20029;-80
2021/03/10 07:29:44;;;;;;;13.10;6.50;;;179.50;1126.40;;;;;;5045611;28;20030;-78
2021/03/10 07:32:10;;;;;;;12.45;6.22;;;179.70;1126.40;;;;;;5026556;28;20029;-82
2021/03/10 07:34:38;;;;;;;9.93;5.80;;;179.70;1100.80;;;;;;5043518;28;20049;-82
2021/03/10 07:37:13;;;;;;;11.82;6.35;;;179.80;1100.80;;;;;;5046108;28;20065;-78
2021/03/10 07:39:39;;;;;;;12.13;5.05;;;179.90;1100.80;;;;;;5044041;28;20039;-81
2021/03/10 07:42:13;;;;;;;9.18;5.70;;;179.90;1100.80;;;;;;5040007;28;20029;-86
2021/03/10 07:44:41;;;;;;;10.77;5.32;;;180.00;1049.60;;;;;;5035623;28;20482;-82
2021/03/10 07:47:26;;;;;;;10.10;5.57;;;179.90;1049.60;;;;;;5019742;28;20040;-84
2021/03/10 07:50:00;;;;;;;12.50;4.85;;;180.10;1049.60;;;;;;5017690;28;20037;-87
2021/03/10 07:52:28;;;;;;;11.45;4.45;;;204.80;972.80;;;;;;5017450;28;20028;-85
2021/03/10 07:55:02;;;;;;;8.95;4.93;;;204.90;972.80;;;;;;5016872;28;20084;-86
2021/03/10 07:57:28;;;;;;;7.85;4.10;;;204.90;972.80;;;;;;5017572;28;20022;-84
2021/03/10 08:00:21;;;;;;;6.63;4.25;;;204.90;947.20;;;;;;5034526;28;20034;-85
2021/03/10 08:02:48;;;;;;;7.40;4.15;;;204.90;947.20;;;;;;5017212;28;20428;-86
2021/03/10 08:05:25;;;;;;;10.10;4.28;;;205.00;947.20;;;;;;5034800;28;20045;-85
2021/03/10 08:08:05;;;;;;;8.15;3.83;;;205.00;896.00;;;;;;5017398;28;20029;-86
2021/03/10 08:10:30;;;;;;;14.98;8.00;;;205.10;896.00;;;;;;5034732;28;20022;-87
2021/03/10 08:12:56;;;;;;;6.20;3.92;;;205.20;870.40;;;;;;5022962;28;20032;-87
2021/03/10 08:15:23;;;;;;;9.18;4.03;;;205.00;896.00;;;;;;4997427;28;20038;-87
2021/03/10 08:17:49;;;;;;;10.38;5.18;;;205.10;896.00;;;;;;5014640;28;20061;-87
2021/03/10 08:20:16;;;;;;;11.70;4.63;;;205.00;921.60;;;;;;4997396;28;20065;-85
2021/03/10 08:22:42;;;;;;;10.43;4.60;;;205.10;947.20;;;;;;5014790;28;20049;-87
2021/03/10 08:25:13;;;;;;;15.88;4.55;;;205.10;896.00;;;;;;4997605;28;20513;-87
2021/03/10 08:27:41;;;;;;;9.75;5.20;;;205.10;921.60;;;;;;4997621;28;20033;-87
2021/03/10 08:30:12;;;;;;;11.10;5.10;;;205.20;921.60;;;;;;4996855;28;20116;-86
2021/03/10 08:32:40;;;;;;;11.73;4.80;;;205.20;921.60;;;;;;4997201;28;20033;-85
2021/03/10 08:35:15;;;;;;;6.95;4.15;;;205.10;896.00;;;;;;5014697;28;20030;-87
2021/03/10 08:37:51;;;;;;;8.63;4.20;;;204.90;870.40;;;;;;5018784;28;20020;-88
2021/03/10 08:40:18;;;;;;;;;;;204.80;921.60;;;;;;5050168;28;20511;-86
2021/03/10 08:42:45;;;;;;;7.85;4.47;;;205.00;921.60;;;;;;5054235;28;19904;-88
2021/03/10 08:45:20;;;;;;;9.45;5.03;;;204.90;896.00;;;;;;5036519;28;20029;-80
2021/03/10 08:47:58;;;;;;;8.85;5.10;;;205.00;896.00;;;;;;5036419;28;20032;-89
2021/03/10 08:50:32;;;;;;;11.77;5.55;;;204.80;896.00;;;;;;5030900;28;20033;-86
2021/03/10 08:52:58;;;;;;;12.23;5.43;;;205.00;947.20;;;;;;5013375;28;20615;-85
2021/03/10 08:55:25;;;;;;;13.15;5.82;;;204.80;896.00;;;;;;5033817;28;20061;-84
2021/03/10 08:57:53;;;;;;;11.98;6.43;;;204.90;921.60;;;;;;5039294;28;20507;-83
2021/03/10 09:00:41;;;;;;;11.73;5.85;;;204.80;947.20;;;;;;5042037;28;20140;-86
2021/03/10 09:03:23;;;;;;;12.23;6.30;;;180.10;947.20;;;;;;5028848;28;20044;-86
2021/03/10 09:05:50;;;;;;;8.70;5.35;;;204.90;972.80;;;;;;5021058;28;20021;-85
2021/03/10 09:08:20;;;;;;;10.95;5.47;;;205.00;947.20;;;;;;5024101;28;20021;-86
2021/03/10 09:10:57;;;;;;;13.00;5.53;;;205.10;896.00;;;;;;5025640;28;20111;-86
2021/03/10 09:13:23;;;;;;;10.60;4.20;;;205.30;896.00;;;;;;5026020;28;20017;-85
2021/03/10 09:15:49;;;;;;;12.35;7.00;;;205.30;896.00;;;;;;5035258;28;20044;-87
2021/03/10 09:18:15;;;;;;;;;;;205.20;896.00;;;;;;5031820;28;20044;-88
2021/03/10 09:20:44;;;;;;;11.88;5.95;;;205.40;870.40;;;;;;5028400;28;20055;-88
2021/03/10 09:23:11;;;;;;;11.23;6.00;;;205.50;870.40;;;;;;5020138;28;20028;-87
2021/03/10 09:25:41;;;;;;;10.43;5.05;;;205.50;844.80;;;;;;5019757;28;20049;-87
2021/03/10 09:28:10;;;;;;;15.23;5.30;;;205.70;870.40;;;;;;5036683;28;20104;-77
2021/03/10 09:30:39;;;;;;;10.38;5.72;;;205.70;844.80;;;;;;5036834;28;20489;-87
2021/03/10 09:33:05;;;;;;;12.75;6.05;;;205.70;819.20;;;;;;5037036;28;20026;-86
2021/03/10 09:35:36;;;;;;;9.55;6.18;;;205.50;844.80;;;;;;5019509;28;20030;-90
2021/03/10 09:38:04;;;;;;;10.32;6.95;;;230.40;870.40;;;;;;5023873;28;20056;-86
2021/03/10 09:40:41;;;;;;;9.93;5.63;;;205.70;819.20;;;;;;5018985;28;20068;-85
2021/03/10 09:43:19;;;;;;;11.90;5.82;;;230.40;870.40;;;;;;5037131;28;20129;-83
2021/03/10 09:45:46;;;;;;;10.52;5.60;;;205.70;870.40;;;;;;5036746;28;20037;-79
2021/03/10 09:48:18;;;;;;;15.20;7.15;;;230.40;844.80;;;;;;5036830;28;20033;-83
2021/03/10 09:50:47;;;;;;;10.48;5.57;;;230.40;844.80;;;;;;5018912;28;20034;-78
2021/03/10 09:53:20;;;;;;;9.70;6.25;;;230.40;844.80;;;;;;5039071;28;20031;-77
2021/03/10 09:55:46;;;;;;;9.40;6.03;;;230.40;844.80;;;;;;5021552;28;20037;-87
2021/03/10 09:58:12;;;;;;;;;;;230.40;844.80;;;;;;5019638;28;20508;-82
2021/03/10 10:00:38;;;;;;;10.63;5.05;;;230.50;921.60;;;;;;5038566;28;19920;-83
2021/03/10 10:03:05;;;;;;;9.20;5.95;;;230.60;844.80;;;;;;5032588;28;20056;-80
2021/03/10 10:05:35;;;;;;;12.85;6.00;;;230.50;870.40;;;;;;5038487;28;20108;-83
2021/03/10 10:08:06;;;;;;;12.27;6.72;;;230.50;793.60;;;;;;5033554;28;20018;-87
2021/03/10 10:10:34;;;;;;;9.85;6.00;;;230.70;819.20;;;;;;5009406;28;20041;-84
2021/03/10 10:13:01;;;;;;;13.07;6.93;;;230.70;844.80;;;;;;5017213;28;20485;-85
2021/03/10 10:15:32;;;;;;;11.65;7.10;;;230.60;819.20;;;;;;5003064;28;20030;-79
2021/03/10 10:18:07;;;;;;;13.95;6.95;;;230.40;844.80;;;;;;5013945;28;20030;-80
2021/03/10 10:20:34;;;;;;;12.18;6.22;;;230.60;870.40;;;;;;5020873;28;20442;-81
2021/03/10 10:23:02;;;;;;;14.40;7.15;;;230.60;844.80;;;;;;5017351;28;20512;-85
2021/03/10 10:25:28;;;;;;;12.05;6.60;;;230.70;844.80;;;;;;5007017;28;20057;-81
2021/03/10 10:27:54;;;;;;;;;;;230.50;844.80;;;;;;5025770;28;20053;-83
2021/03/10 10:30:20;;;;;;;11.95;6.07;;;230.70;844.80;;;;;;5007618;28;19928;-81
2021/03/10 10:32:48;;;;;;;12.50;6.53;;;230.60;819.20;;;;;;5007356;28;20537;-81
2021/03/10 10:35:15;;;;;;;13.73;8.57;;;230.70;844.80;;;;;;5007597;28;20126;-87
2021/03/10 10:37:42;;;;;;;13.82;8.25;;;231.10;819.20;;;;;;5013426;28;20026;-82
2021/03/10 10:40:10;;;;;;;13.02;7.55;;;231.10;819.20;;;;;;5022033;28;20037;-79
2021/03/10 10:42:36;;;;;;;15.40;7.28;;;256.00;793.60;;;;;;5046575;28;20036;-85
2021/03/10 10:45:02;;;;;;;;;;;256.10;793.60;;;;;;5032293;28;20330;-85
2021/03/10 10:47:28;;;;;;;11.30;6.80;;;256.60;768.00;;;;;;5029595;28;19912;-85
2021/03/10 10:49:53;;;;;;;;;;;281.60;768.00;;;;;;5038647;28;20393;-82
2021/03/10 10:52:20;;;;;;;12.70;7.28;;;256.90;742.40;;;;;;5037235;28;19944;-84
2021/03/10 10:54:46;;;;;;;13.05;6.30;;;256.90;742.40;;;;;;5042361;28;20041;-80
2021/03/10 10:57:12;;;;;;;11.80;6.50;;;281.60;768.00;;;;;;5026487;28;20029;-86
2021/03/10 10:59:38;;;;;;;;;;;256.80;716.80;;;;;;5028904;28;20063;-79
2021/03/10 11:02:04;;;;;;;12.48;7.40;;;281.90;793.60;;;;;;5050000;28;20007;-80
2021/03/10 11:04:30;;;;;;;;;;;256.50;742.40;;;;;;5034308;28;20028;-83
2021/03/10 11:06:55;;;;;;;10.88;6.03;;;256.60;768.00;;;;;;5035344;28;19948;-81
2021/03/10 11:09:22;;;;;;;;;;;256.30;716.80;;;;;;5023200;28;20108;-80
2021/03/10 11:11:48;;;;;;;8.48;5.22;;;256.40;793.60;;;;;;5034132;28;19916;-85
2021/03/10 11:14:14;;;;;;;12.75;6.22;;;256.50;793.60;;;;;;5034445;28;20470;-78
2021/03/10 11:16:40;;;;;;;;;;;256.20;716.80;;;;;;5035705;28;20029;-80
2021/03/10 11:19:06;;;;;;;11.57;7.10;;;256.20;716.80;;;;;;5033807;28;19909;-81
2021/03/10 11:21:31;;;;;;;;;;;256.20;742.40;;;;;;5034463;28;20045;-80
2021/03/10 11:23:57;;;;;;;13.73;6.32;;;256.10;768.00;;;;;;5034906;28;19905;-81
2021/03/10 11:26:23;;;;;;;;;;;256.20;768.00;;;;;;5035244;28;20041;-81
2021/03/10 11:28:48;;;;;;;12.20;7.03;;;256.00;742.40;;;;;;5034842;28;20276;-82
2021/03/10 11:31:14;;;;;;;;;;;231.30;793.60;;;;;;5026404;28;20048;-79
2021/03/10 11:33:39;;;;;;;13.07;6.85;;;256.10;768.00;;;;;;5036012;28;19905;-86
2021/03/10 11:36:08;;;;;;;;;;;256.00;768.00;;;;;;5016735;28;20065;-85
2021/03/10 11:38:34;;;;;;;18.40;7.70;;;256.00;793.60;;;;;;5021918;28;19913;-81
2021/03/10 11:41:00;;;;;;;;;;;231.00;768.00;;;;;;5037308;28;20362;-78
2021/03/10 11:43:26;;;;;;;14.70;7.63;;;231.00;793.60;;;;;;5016523;28;20280;-80
2021/03/10 11:45:51;;;;;;;;;;;230.90;793.60;;;;;;5034621;28;20022;-79
2021/03/10 11:48:17;;;;;;;11.68;7.60;;;231.10;819.20;;;;;;5016472;28;20351;-80
2021/03/10 11:50:43;;;;;;;;;;;231.20;793.60;;;;;;5016983;28;20037;-81
2021/03/10 11:53:09;;;;;;;20.17;8.13;;;231.30;793.60;;;;;;5034323;28;20365;-79
2021/03/10 11:55:36;;;;;;;14.00;8.40;;;256.10;793.60;;;;;;5033944;28;20121;-78
2021/03/10 11:58:03;;;;;;;14.35;8.88;;;256.20;768.00;;;;;;5016232;28;20017;-78
2021/03/10 12:00:29;;;;;;;18.80;7.80;;;256.60;793.60;;;;;;5016175;28;20117;-84
2021/03/10 12:02:55;;;;;;;13.48;7.82;;;281.60;793.60;;;;;;5034255;28;20028;-84
2021/03/10 12:05:20;;;;;;;;;;;256.70;742.40;;;;;;5034221;28;20552;-78
2021/03/10 12:07:48;;;;;;;13.02;8.02;;;256.80;742.40;;;;;;5016074;28;19928;-76
2021/03/10 12:10:15;;;;;;;14.82;8.82;;;281.60;742.40;;;;;;5033888;28;20033;-77
2021/03/10 12:12:40;;;;;;;19.00;10.40;;;256.90;742.40;;;;;;5033626;28;20461;-84
2021/03/10 12:15:07;;;;;;;;;;;282.00;742.40;;;;;;5034131;28;20037;-80
2021/03/10 12:17:33;;;;;;;16.98;7.55;;;282.50;742.40;;;;;;5033805;28;19912;-77
2021/03/10 12:19:58;;;;;;;;;;;307.30;716.80;;;;;;5039258;28;20041;-77
2021/03/10 12:22:25;;;;;;;11.40;8.05;;;282.40;716.80;;;;;;5039826;28;19929;-77
2021/03/10 12:24:50;;;;;;;;;;;282.50;742.40;;;;;;5040224;28;20026;-77
2021/03/10 12:27:25;;;;;;;12.00;8.30;;;307.30;716.80;;;;;;5020793;28;19916;-78
2021/03/10 12:29:57;;;;;;;16.08;8.00;;;307.60;691.20;;;;;;5019859;28;20021;-77
2021/03/10 12:32:24;;;;;;;18.75;8.35;;;307.30;768.00;;;;;;5020073;28;20037;-77
2021/03/10 12:34:50;;;;;;;14.38;9.23;;;307.30;691.20;;;;;;5044981;28;20068;-76
2021/03/10 12:37:16;;;;;;;15.02;8.18;;;281.90;742.40;;;;;;5027975;28;20017;-76